createdAt,value
2023-05-06T00:00:36.039Z,13.82
2023-05-06T00:03:40.921Z,13.79
2023-05-06T00:06:45.664Z,13.77
2023-05-06T00:09:50.269Z,13.83
2023-05-06T00:12:56.091Z,13.66
2023-05-06T00:16:00.936Z,13.88
2023-05-06T00:19:06.205Z,13.87
2023-05-06T00:22:10.625Z,13.58
2023-05-06T00:25:15.168Z,13.52
2023-05-06T00:28:19.710Z,13.31
2023-05-06T00:31:24.514Z,13.32
2023-05-06T00:34:29.111Z,13.39
2023-05-06T00:37:33.590Z,13.54
2023-05-06T00:40:38.438Z,13.13
2023-05-06T00:43:43.003Z,13.30
2023-05-06T00:46:47.583Z,13.13
2023-05-06T00:49:52.248Z,13.57
2023-05-06T00:52:58.862Z,13.17
2023-05-06T00:56:03.910Z,13.16
2023-05-06T00:59:08.573Z,12.98
2023-05-06T01:02:13.152Z,13.23
2023-05-06T01:05:21.065Z,13.03
2023-05-06T01:08:32.282Z,13.19
2023-05-06T01:11:50.830Z,13.08
2023-05-06T01:15:09.578Z,13.06
2023-05-06T01:18:17.722Z,13.56
2023-05-06T01:21:22.876Z,13.20
2023-05-06T01:24:39.772Z,13.06
2023-05-06T01:27:44.249Z,13.32
2023-05-06T01:30:52.377Z,12.83
2023-05-06T01:34:14.979Z,13.41
2023-05-06T01:37:34.614Z,13.42
2023-05-06T01:40:42.542Z,13.38
2023-05-06T01:43:48.129Z,13.46
2023-05-06T01:46:53.966Z,13.15
2023-05-06T01:49:59.181Z,13.15
2023-05-06T01:53:04.393Z,13.12
2023-05-06T01:56:08.937Z,13.49
2023-05-06T01:59:13.522Z,13.92
2023-05-06T02:02:18.090Z,13.47
2023-05-06T02:05:22.619Z,13.38
2023-05-06T02:08:32.148Z,13.64
2023-05-06T02:11:37.800Z,13.54
2023-05-06T02:14:44.600Z,13.58
2023-05-06T02:17:49.265Z,14.06
2023-05-06T02:20:53.988Z,14.08
2023-05-06T02:23:59.402Z,14.08
2023-05-06T02:27:05.076Z,13.59
2023-05-06T02:30:09.961Z,13.76
2023-05-06T02:33:14.498Z,13.77
2023-05-06T02:36:19.097Z,13.51
2023-05-06T02:39:24.680Z,13.44
2023-05-06T02:42:29.378Z,13.24
2023-05-06T02:45:33.909Z,13.67
2023-05-06T02:48:38.368Z,13.74
2023-05-06T02:51:42.929Z,14.00
2023-05-06T02:54:47.604Z,13.96
2023-05-06T02:57:52.147Z,13.57
2023-05-06T03:00:56.649Z,13.87
2023-05-06T03:04:01.292Z,14.03
2023-05-06T03:07:05.944Z,13.91
2023-05-06T03:10:10.849Z,13.57
2023-05-06T03:13:16.337Z,13.39
2023-05-06T03:16:21.079Z,13.51
2023-05-06T03:19:28.969Z,13.79
2023-05-06T03:22:33.519Z,13.50
2023-05-06T03:25:39.952Z,13.48
2023-05-06T03:28:46.013Z,13.80
2023-05-06T03:31:52.062Z,13.68
2023-05-06T03:34:59.167Z,13.48
2023-05-06T03:38:03.941Z,13.33
2023-05-06T03:41:24.918Z,13.54
2023-05-06T03:44:29.993Z,13.66
2023-05-06T03:47:35.432Z,13.96
2023-05-06T03:50:42.320Z,13.74
2023-05-06T03:53:47.194Z,13.90
2023-05-06T03:56:52.101Z,14.01
2023-05-06T03:59:58.142Z,13.84
2023-05-06T04:03:04.637Z,13.90
2023-05-06T04:06:17.155Z,13.90
2023-05-06T04:09:21.839Z,14.07
2023-05-06T04:12:27.735Z,13.85
2023-05-06T04:15:34.399Z,13.98
2023-05-06T04:18:41.273Z,14.07
2023-05-06T04:21:52.003Z,13.34
2023-05-06T04:24:57.827Z,13.35
2023-05-06T04:28:03.865Z,13.65
2023-05-06T04:31:09.133Z,13.78
2023-05-06T04:34:19.912Z,13.77
2023-05-06T04:37:25.146Z,13.79
2023-05-06T04:40:39.692Z,14.31
2023-05-06T04:43:44.946Z,14.22
2023-05-06T04:46:55.004Z,13.97
2023-05-06T04:49:59.781Z,13.93
2023-05-06T04:53:05.332Z,13.72
2023-05-06T04:56:12.226Z,14.01
2023-05-06T04:59:17.193Z,14.09
2023-05-06T05:02:22.827Z,13.90
2023-05-06T05:05:28.857Z,14.12
2023-05-06T05:08:34.688Z,14.43
2023-05-06T05:11:39.692Z,14.38
2023-05-06T05:14:44.383Z,13.96
2023-05-06T05:17:51.081Z,14.02
2023-05-06T05:20:56.706Z,14.22
2023-05-06T05:24:02.005Z,13.77
2023-05-06T05:27:07.538Z,13.88
2023-05-06T05:30:12.491Z,13.34
2023-05-06T05:33:17.678Z,14.03
2023-05-06T05:36:23.602Z,13.93
2023-05-06T05:39:31.518Z,13.77
2023-05-06T05:42:36.208Z,13.68
2023-05-06T05:45:47.171Z,13.72
2023-05-06T05:48:52.182Z,14.54
2023-05-06T05:51:59.632Z,13.97
2023-05-06T05:55:06.496Z,14.71
2023-05-06T05:58:12.252Z,14.80
2023-05-06T06:01:19.964Z,14.45
2023-05-06T06:04:24.806Z,14.44
2023-05-06T06:07:29.342Z,14.54
2023-05-06T06:10:33.864Z,14.71
2023-05-06T06:13:42.463Z,14.51
2023-05-06T06:16:47.097Z,14.76
2023-05-06T06:19:51.654Z,14.39
2023-05-06T06:22:56.213Z,14.00
2023-05-06T06:26:03.134Z,14.01
2023-05-06T06:29:08.019Z,14.13
2023-05-06T06:32:12.566Z,14.13
2023-05-06T06:35:17.728Z,14.31
2023-05-06T06:38:22.508Z,14.76
2023-05-06T06:41:28.039Z,14.49
2023-05-06T06:44:35.494Z,15.02
2023-05-06T06:47:40.965Z,15.00
2023-05-06T06:50:45.704Z,14.92
2023-05-06T06:53:51.651Z,14.99
2023-05-06T06:56:57.260Z,15.43
2023-05-06T07:00:01.753Z,15.07
2023-05-06T07:03:06.430Z,14.49
2023-05-06T07:06:11.066Z,14.45
2023-05-06T07:09:15.842Z,14.55
2023-05-06T07:12:20.269Z,14.18
2023-05-06T07:15:24.819Z,14.53
2023-05-06T07:18:31.148Z,14.87
2023-05-06T07:21:35.715Z,14.48
2023-05-06T07:24:40.283Z,15.14
2023-05-06T07:27:45.051Z,14.93
2023-05-06T07:30:51.387Z,14.71
2023-05-06T07:33:55.966Z,14.82
2023-05-06T07:37:01.296Z,14.81
2023-05-06T07:40:06.773Z,15.31
2023-05-06T07:43:11.374Z,15.34
2023-05-06T07:46:15.850Z,15.88
2023-05-06T07:49:20.398Z,15.84
2023-05-06T07:52:24.928Z,15.91
2023-05-06T07:55:29.762Z,15.76
2023-05-06T07:58:35.095Z,15.36
2023-05-06T08:01:41.044Z,15.31
2023-05-06T08:04:46.239Z,15.98
2023-05-06T08:07:51.459Z,15.62
2023-05-06T08:10:57.852Z,15.96
2023-05-06T08:14:02.321Z,15.95
2023-05-06T08:17:06.841Z,16.28
2023-05-06T08:20:11.870Z,16.35
2023-05-06T08:23:16.457Z,15.72
2023-05-06T08:26:21.351Z,16.63
2023-05-06T08:29:25.848Z,16.22
2023-05-06T08:32:30.439Z,15.98
2023-05-06T08:35:35.065Z,15.91
2023-05-06T08:38:39.506Z,16.02
2023-05-06T08:41:53.914Z,16.05
2023-05-06T08:44:58.661Z,16.18
2023-05-06T08:48:03.489Z,16.26
2023-05-06T08:51:09.343Z,16.30
2023-05-06T08:54:13.826Z,15.64
2023-05-06T08:57:18.473Z,15.88
2023-05-06T09:00:23.117Z,16.07
2023-05-06T09:03:27.696Z,16.78
2023-05-06T09:06:32.841Z,16.56
2023-05-06T09:09:37.340Z,16.44
2023-05-06T09:12:41.897Z,16.59
2023-05-06T09:15:49.405Z,16.74
2023-05-06T09:18:53.947Z,16.65
2023-05-06T09:21:58.499Z,16.91
2023-05-06T09:25:04.914Z,16.90
2023-05-06T09:28:11.167Z,17.79
2023-05-06T09:31:16.024Z,17.73
2023-05-06T09:34:21.813Z,17.22
2023-05-06T09:37:26.559Z,16.54
2023-05-06T09:40:31.647Z,16.98
2023-05-06T09:43:37.450Z,17.10
2023-05-06T09:46:42.196Z,18.01
2023-05-06T09:49:47.133Z,18.05
2023-05-06T09:52:51.770Z,17.99
2023-05-06T09:55:58.434Z,18.71
2023-05-06T09:59:04.214Z,18.68
2023-05-06T10:02:11.152Z,19.90
2023-05-06T10:05:17.604Z,19.84
2023-05-06T10:08:26.559Z,20.75
2023-05-06T10:11:32.208Z,20.44
2023-05-06T10:14:37.514Z,20.37
2023-05-06T10:17:45.230Z,20.14
2023-05-06T10:20:53.498Z,19.75
2023-05-06T10:24:08.990Z,20.70
2023-05-06T10:27:14.040Z,21.18
2023-05-06T10:30:19.495Z,20.54
2023-05-06T10:33:24.772Z,21.36
2023-05-06T10:36:33.484Z,20.67
2023-05-06T10:39:42.237Z,20.30
2023-05-06T10:42:46.927Z,19.25
2023-05-06T10:46:08.035Z,20.41
2023-05-06T10:49:16.204Z,19.87
2023-05-06T10:52:24.148Z,20.81
2023-05-06T10:55:32.533Z,20.08
2023-05-06T10:58:38.922Z,20.41
2023-05-06T11:01:44.447Z,22.96
2023-05-06T11:04:59.494Z,21.78
2023-05-06T11:08:10.889Z,21.32
2023-05-06T11:11:46.672Z,21.14
2023-05-06T11:14:51.247Z,21.11
2023-05-06T11:17:56.676Z,22.56
2023-05-06T11:21:01.359Z,21.66
2023-05-06T11:24:06.516Z,21.08
2023-05-06T11:27:19.517Z,21.30
2023-05-06T11:30:26.895Z,20.91
2023-05-06T11:33:36.188Z,20.55
2023-05-06T11:37:02.570Z,20.74
2023-05-06T11:40:14.563Z,20.73
2023-05-06T11:43:19.176Z,20.76
2023-05-06T11:46:24.955Z,20.59
2023-05-06T11:49:30.904Z,20.53
2023-05-06T11:52:35.549Z,20.32
2023-05-06T11:55:40.571Z,22.43
2023-05-06T11:58:46.337Z,22.80
2023-05-06T12:01:51.307Z,21.34
2023-05-06T12:04:56.481Z,22.60
2023-05-06T12:08:01.158Z,21.13
2023-05-06T12:11:08.057Z,22.47
2023-05-06T12:14:12.925Z,22.84
2023-05-06T12:17:17.662Z,23.24
2023-05-06T12:20:22.899Z,23.15
2023-05-06T12:23:27.336Z,24.78
2023-05-06T12:26:49.454Z,24.97
2023-05-06T12:29:54.015Z,24.75
2023-05-06T12:32:59.508Z,25.40
2023-05-06T12:36:07.412Z,25.47
2023-05-06T12:39:13.531Z,23.41
2023-05-06T12:42:22.088Z,21.87
2023-05-06T12:45:26.727Z,22.22
2023-05-06T12:48:31.195Z,23.37
2023-05-06T12:51:36.907Z,22.11
2023-05-06T12:54:41.693Z,22.92
2023-05-06T12:57:46.344Z,24.74
2023-05-06T13:00:51.034Z,24.39
2023-05-06T13:03:57.301Z,24.90
2023-05-06T13:07:01.830Z,24.36
2023-05-06T13:10:06.664Z,23.17
2023-05-06T13:13:11.224Z,22.85
2023-05-06T13:16:16.009Z,23.73
2023-05-06T13:19:31.751Z,23.52
2023-05-06T13:22:50.658Z,23.47
2023-05-06T13:26:04.813Z,23.45
2023-05-06T13:29:10.046Z,22.15
2023-05-06T13:32:14.670Z,24.62
2023-05-06T13:35:20.991Z,23.65
2023-05-06T13:38:25.519Z,24.39
2023-05-06T13:41:30.045Z,23.63
2023-05-06T13:44:34.603Z,23.72
2023-05-06T13:47:39.142Z,23.14
2023-05-06T13:50:45.858Z,25.13
2023-05-06T13:53:51.799Z,24.13
2023-05-06T13:56:56.398Z,23.42
2023-05-06T14:00:00.945Z,23.30
2023-05-06T14:03:05.875Z,23.69
2023-05-06T14:06:11.473Z,23.59
2023-05-06T14:09:16.120Z,23.05
2023-05-06T14:12:22.814Z,23.21
2023-05-06T14:15:27.675Z,23.06
2023-05-06T14:18:33.331Z,24.57
2023-05-06T14:21:37.816Z,24.62
2023-05-06T14:24:42.433Z,25.69
2023-05-06T14:27:46.963Z,25.03
2023-05-06T14:30:52.967Z,25.37
2023-05-06T14:33:57.493Z,26.48
2023-05-06T14:37:02.241Z,26.04
2023-05-06T14:40:07.909Z,25.43
2023-05-06T14:43:12.374Z,26.09
2023-05-06T14:46:17.701Z,24.70
2023-05-06T14:49:22.550Z,24.17
2023-05-06T14:52:27.164Z,24.08
2023-05-06T14:55:31.671Z,24.77
2023-05-06T14:58:36.245Z,25.48
2023-05-06T15:01:40.831Z,26.51
2023-05-06T15:04:46.089Z,26.09
2023-05-06T15:07:50.698Z,26.93
2023-05-06T15:10:55.376Z,26.47
2023-05-06T15:14:00.054Z,26.83
2023-05-06T15:17:06.240Z,25.90
2023-05-06T15:20:11.333Z,25.20
2023-05-06T15:23:15.918Z,24.55
2023-05-06T15:26:21.475Z,25.48
2023-05-06T15:29:26.155Z,26.49
2023-05-06T15:32:31.324Z,26.26
2023-05-06T15:35:37.125Z,26.12
2023-05-06T15:38:50.693Z,25.90
2023-05-06T15:41:57.984Z,25.92
2023-05-06T15:45:02.565Z,25.43
2023-05-06T15:48:07.285Z,24.35
2023-05-06T15:51:11.919Z,24.08
2023-05-06T15:54:18.272Z,23.04
2023-05-06T15:57:22.877Z,22.91
2023-05-06T16:00:27.956Z,23.21
2023-05-06T16:03:32.873Z,22.48
2023-05-06T16:06:37.544Z,22.26
2023-05-06T16:09:44.481Z,22.56
2023-05-06T16:12:49.037Z,22.98
2023-05-06T16:15:53.591Z,23.19
2023-05-06T16:18:58.096Z,22.88
2023-05-06T16:22:03.634Z,23.53
2023-05-06T16:25:08.340Z,22.39
2023-05-06T16:28:12.911Z,23.35
2023-05-06T16:31:17.952Z,22.94
2023-05-06T16:34:22.531Z,23.21
2023-05-06T16:37:29.092Z,23.34
2023-05-06T16:40:41.352Z,23.14
2023-05-06T16:43:45.943Z,23.85
2023-05-06T16:46:50.540Z,22.99
2023-05-06T16:49:55.115Z,22.48
2023-05-06T16:53:01.099Z,22.16
2023-05-06T16:56:05.902Z,22.07
2023-05-06T16:59:10.366Z,22.00
2023-05-06T17:02:15.067Z,22.24
2023-05-06T17:05:21.900Z,21.21
2023-05-06T17:08:27.278Z,22.05
2023-05-06T17:11:33.002Z,22.60
2023-05-06T17:14:37.607Z,22.05
2023-05-06T17:17:42.373Z,22.06
2023-05-06T17:20:55.133Z,22.31
2023-05-06T17:24:00.943Z,22.63
2023-05-06T17:27:05.699Z,22.25
2023-05-06T17:30:11.613Z,22.69
2023-05-06T17:33:16.764Z,22.33
2023-05-06T17:36:21.821Z,21.85
2023-05-06T17:39:28.131Z,21.93
2023-05-06T17:42:32.595Z,21.64
2023-05-06T17:45:37.141Z,21.89
2023-05-06T17:48:41.697Z,21.61
2023-05-06T17:51:46.259Z,21.11
2023-05-06T17:55:05.809Z,20.31
2023-05-06T17:58:16.454Z,20.82
2023-05-06T18:01:20.950Z,20.48
2023-05-06T18:04:25.612Z,20.65
2023-05-06T18:07:30.432Z,20.43
2023-05-06T18:10:35.338Z,19.74
2023-05-06T18:13:39.991Z,20.22
2023-05-06T18:16:44.988Z,19.79
2023-05-06T18:19:49.757Z,19.43
2023-05-06T18:22:54.490Z,19.21
2023-05-06T18:26:00.523Z,19.82
2023-05-06T18:29:05.238Z,19.66
2023-05-06T18:32:09.973Z,19.35
2023-05-06T18:35:14.558Z,19.37
2023-05-06T18:38:19.319Z,19.23
2023-05-06T18:41:23.749Z,18.77
2023-05-06T18:44:28.282Z,18.58
2023-05-06T18:47:32.899Z,18.87
2023-05-06T18:50:37.442Z,18.70
2023-05-06T18:53:42.250Z,18.67
2023-05-06T18:56:47.194Z,19.02
2023-05-06T18:59:51.734Z,18.61
2023-05-06T19:02:56.299Z,18.66
2023-05-06T19:06:02.663Z,19.56
2023-05-06T19:09:07.976Z,18.36
2023-05-06T19:12:12.482Z,19.10
2023-05-06T19:15:19.094Z,18.41
2023-05-06T19:18:23.782Z,18.43
2023-05-06T19:21:28.394Z,18.40
2023-05-06T19:24:33.007Z,19.23
2023-05-06T19:27:37.561Z,18.16
2023-05-06T19:30:42.161Z,18.05
2023-05-06T19:33:47.003Z,18.87
2023-05-06T19:36:51.483Z,19.03
2023-05-06T19:39:56.016Z,18.19
2023-05-06T19:43:03.753Z,17.82
2023-05-06T19:46:09.174Z,17.76
2023-05-06T19:49:14.997Z,17.38
2023-05-06T19:52:19.404Z,17.10
2023-05-06T19:55:23.876Z,18.13
2023-05-06T19:58:28.551Z,17.15
2023-05-06T20:01:33.166Z,18.03
2023-05-06T20:04:37.766Z,16.95
2023-05-06T20:07:42.325Z,16.43
2023-05-06T20:10:48.098Z,16.08
2023-05-06T20:13:52.570Z,15.67
2023-05-06T20:16:57.905Z,15.74
2023-05-06T20:20:09.365Z,16.45
2023-05-06T20:23:14.015Z,15.84
2023-05-06T20:26:18.608Z,15.78
2023-05-06T20:29:23.085Z,15.71
2023-05-06T20:32:27.664Z,15.33
2023-05-06T20:35:37.932Z,15.35
2023-05-06T20:38:42.599Z,15.38
2023-05-06T20:41:47.128Z,14.98
2023-05-06T20:44:52.214Z,15.46
2023-05-06T20:47:58.944Z,14.92
2023-05-06T20:51:04.290Z,15.12
2023-05-06T20:54:09.094Z,14.89
2023-05-06T20:57:15.294Z,15.44
2023-05-06T21:00:20.560Z,15.33
2023-05-06T21:03:26.393Z,15.07
2023-05-06T21:06:32.314Z,14.46
2023-05-06T21:09:37.988Z,14.33
2023-05-06T21:12:49.705Z,14.52
2023-05-06T21:15:54.189Z,14.20
2023-05-06T21:18:58.717Z,14.50
2023-05-06T21:22:04.953Z,14.54
2023-05-06T21:25:09.887Z,14.32
2023-05-06T21:28:14.597Z,14.23
2023-05-06T21:31:20.565Z,14.31
2023-05-06T21:34:26.339Z,14.18
2023-05-06T21:37:30.936Z,14.18
2023-05-06T21:40:36.937Z,14.56
2023-05-06T21:43:44.461Z,14.60
2023-05-06T21:46:49.078Z,14.15
2023-05-06T21:49:53.673Z,14.44
2023-05-06T21:52:58.197Z,14.18
2023-05-06T21:56:02.688Z,13.75
2023-05-06T21:59:09.052Z,13.68
2023-05-06T22:02:13.647Z,13.52
2023-05-06T22:05:18.285Z,13.68
2023-05-06T22:08:22.767Z,14.12
2023-05-06T22:11:27.239Z,14.49
2023-05-06T22:14:40.560Z,13.52
2023-05-06T22:17:46.636Z,13.72
2023-05-06T22:20:52.301Z,13.68
2023-05-06T22:23:57.128Z,13.42
2023-05-06T22:27:01.671Z,14.03
2023-05-06T22:30:08.052Z,13.94
2023-05-06T22:33:12.609Z,13.42
2023-05-06T22:36:17.201Z,13.32
2023-05-06T22:39:21.717Z,13.05
2023-05-06T22:42:26.229Z,13.31
2023-05-06T22:45:32.249Z,13.63
2023-05-06T22:48:37.263Z,12.98
2023-05-06T22:51:41.855Z,13.51
2023-05-06T22:54:46.424Z,13.33
2023-05-06T22:57:53.765Z,13.36
2023-05-06T23:00:58.331Z,13.12
2023-05-06T23:04:02.992Z,12.85
2023-05-06T23:07:07.556Z,13.46
2023-05-06T23:10:12.184Z,12.46
2023-05-06T23:13:16.826Z,12.96
2023-05-06T23:16:21.584Z,12.50
2023-05-06T23:19:26.878Z,13.09
2023-05-06T23:22:31.379Z,13.15
2023-05-06T23:25:36.188Z,13.10
2023-05-06T23:28:40.712Z,12.59
2023-05-06T23:31:45.466Z,12.81
2023-05-06T23:34:50.013Z,12.59
2023-05-06T23:37:56.025Z,12.68
2023-05-06T23:41:00.618Z,12.47
2023-05-06T23:44:06.027Z,12.65
2023-05-06T23:47:10.733Z,12.78
2023-05-06T23:50:15.338Z,12.45
2023-05-06T23:53:20.376Z,12.37
2023-05-06T23:56:26.115Z,12.67
2023-05-06T23:59:32.198Z,12.84
